sensor_id;sensor_type;location;lat;lon;timestamp;pressure;altitude;pressure_sealevel;temperature;humidity
60337;BME280;46978;50.288;28.624;2023-03-04T00:00:37;98549.45;;;-0.56;94.63
60337;BME280;46978;50.288;28.624;2023-03-04T00:01:38;98545.19;;;-0.57;94.67
60337;BME280;46978;50.288;28.624;2023-03-04T00:02:40;98546.05;;;-0.55;94.79
60337;BME280;46978;50.288;28.624;2023-03-04T00:03:42;98555.41;;;-0.55;94.52
60337;BME280;46978;50.288;28.624;2023-03-04T00:04:44;98553.70;;;-0.55;94.23
60337;BME280;46978;50.288;28.624;2023-03-04T00:05:45;98549.50;;;-0.52;94.32
60337;BME280;46978;50.288;28.624;2023-03-04T00:06:47;98548.64;;;-0.51;94.42
60337;BME280;46978;50.288;28.624;2023-03-04T00:07:49;98545.27;;;-0.50;94.15
60337;BME280;46978;50.288;28.624;2023-03-04T00:08:50;98543.56;;;-0.50;93.56
60337;BME280;46978;50.288;28.624;2023-03-04T00:09:52;98542.72;;;-0.50;92.83
60337;BME280;46978;50.288;28.624;2023-03-04T00:10:54;98547.81;;;-0.50;92.76
60337;BME280;46978;50.288;28.624;2023-03-04T00:11:55;98550.34;;;-0.52;92.01
60337;BME280;46978;50.288;28.624;2023-03-04T00:12:57;98539.30;;;-0.52;91.57
60337;BME280;46978;50.288;28.624;2023-03-04T00:13:59;98537.59;;;-0.53;91.36
60337;BME280;46978;50.288;28.624;2023-03-04T00:15:00;98543.51;;;-0.55;91.34
60337;BME280;46978;50.288;28.624;2023-03-04T00:16:02;98538.41;;;-0.55;91.18
60337;BME280;46978;50.288;28.624;2023-03-04T00:17:04;98538.39;;;-0.56;91.24
60337;BME280;46978;50.288;28.624;2023-03-04T00:18:05;98532.45;;;-0.57;91.28
60337;BME280;46978;50.288;28.624;2023-03-04T00:19:08;98532.45;;;-0.57;91.29
60337;BME280;46978;50.288;28.624;2023-03-04T00:20:11;98523.95;;;-0.57;91.40
60337;BME280;46978;50.288;28.624;2023-03-04T00:21:13;98524.83;;;-0.55;91.60
60337;BME280;46978;50.288;28.624;2023-03-04T00:22:15;98522.26;;;-0.57;91.72
60337;BME280;46978;50.288;28.624;2023-03-04T00:23:17;98519.73;;;-0.55;91.53
60337;BME280;46978;50.288;28.624;2023-03-04T00:24:18;98512.93;;;-0.55;91.62
60337;BME280;46978;50.288;28.624;2023-03-04T00:25:20;98516.36;;;-0.54;91.51
60337;BME280;46978;50.288;28.624;2023-03-04T00:26:22;98515.48;;;-0.55;91.52
60337;BME280;46978;50.288;28.624;2023-03-04T00:27:23;98517.20;;;-0.53;91.50
60337;BME280;46978;50.288;28.624;2023-03-04T00:28:25;98523.14;;;-0.53;91.42
60337;BME280;46978;50.288;28.624;2023-03-04T00:29:27;98512.10;;;-0.53;91.43
60337;BME280;46978;50.288;28.624;2023-03-04T00:30:29;98511.26;;;-0.54;91.40
60337;BME280;46978;50.288;28.624;2023-03-04T00:31:30;98512.93;;;-0.55;91.42
60337;BME280;46978;50.288;28.624;2023-03-04T00:32:32;98511.23;;;-0.56;91.45
60337;BME280;46978;50.288;28.624;2023-03-04T00:33:34;98509.55;;;-0.53;91.61
60337;BME280;46978;50.288;28.624;2023-03-04T00:34:35;98508.70;;;-0.54;91.47
60337;BME280;46978;50.288;28.624;2023-03-04T00:35:37;98506.98;;;-0.55;91.32
60337;BME280;46978;50.288;28.624;2023-03-04T00:36:39;98504.44;;;-0.55;91.38
60337;BME280;46978;50.288;28.624;2023-03-04T00:37:40;98501.06;;;-0.54;91.41
60337;BME280;46978;50.288;28.624;2023-03-04T00:38:42;98493.40;;;-0.56;91.48
60337;BME280;46978;50.288;28.624;2023-03-04T00:39:45;98492.55;;;-0.55;91.52
60337;BME280;46978;50.288;28.624;2023-03-04T00:40:48;98492.55;;;-0.55;91.56
60337;BME280;46978;50.288;28.624;2023-03-04T00:41:54;98490.88;;;-0.54;91.58
60337;BME280;46978;50.288;28.624;2023-03-04T00:42:55;98490.88;;;-0.54;91.64
60337;BME280;46978;50.288;28.624;2023-03-04T00:43:57;98490.89;;;-0.52;91.70
60337;BME280;46978;50.288;28.624;2023-03-04T00:44:59;98484.09;;;-0.52;91.77
60337;BME280;46978;50.288;28.624;2023-03-04T00:46:00;98493.42;;;-0.54;91.46
60337;BME280;46978;50.288;28.624;2023-03-04T00:47:02;98490.91;;;-0.51;91.42
60337;BME280;46978;50.288;28.624;2023-03-04T00:48:04;98485.77;;;-0.54;91.38
60337;BME280;46978;50.288;28.624;2023-03-04T00:49:06;98481.50;;;-0.55;91.08
60337;BME280;46978;50.288;28.624;2023-03-04T00:50:09;98476.39;;;-0.57;91.00
60337;BME280;46978;50.288;28.624;2023-03-04T00:51:11;98479.77;;;-0.58;90.91
60337;BME280;46978;50.288;28.624;2023-03-04T00:52:13;98470.43;;;-0.59;90.68
60337;BME280;46978;50.288;28.624;2023-03-04T00:53:14;98467.88;;;-0.59;90.90
60337;BME280;46978;50.288;28.624;2023-03-04T00:54:16;98470.41;;;-0.60;90.19
60337;BME280;46978;50.288;28.624;2023-03-04T00:55:18;98476.35;;;-0.60;90.36
60337;BME280;46978;50.288;28.624;2023-03-04T00:56:20;98482.23;;;-0.64;89.50
60337;BME280;46978;50.288;28.624;2023-03-04T00:57:21;98470.36;;;-0.65;89.40
60337;BME280;46978;50.288;28.624;2023-03-04T00:58:23;98471.98;;;-0.68;89.05
60337;BME280;46978;50.288;28.624;2023-03-04T00:59:25;98461.78;;;-0.70;89.06
60337;BME280;46978;50.288;28.624;2023-03-04T01:00:26;98475.34;;;-0.74;88.91
60337;BME280;46978;50.288;28.624;2023-03-04T01:01:28;98471.06;;;-0.75;88.95
60337;BME280;46978;50.288;28.624;2023-03-04T01:02:30;98466.81;;;-0.75;89.37
60337;BME280;46978;50.288;28.624;2023-03-04T01:03:31;98469.36;;;-0.75;89.15
60337;BME280;46978;50.288;28.624;2023-03-04T01:04:33;98467.66;;;-0.77;88.88
60337;BME280;46978;50.288;28.624;2023-03-04T01:05:35;98461.69;;;-0.78;88.61
60337;BME280;46978;50.288;28.624;2023-03-04T01:06:37;98461.69;;;-0.78;88.55
60337;BME280;46978;50.288;28.624;2023-03-04T01:07:38;98456.57;;;-0.79;88.61
60337;BME280;46978;50.288;28.624;2023-03-04T01:08:40;98455.72;;;-0.80;88.67
60337;BME280;46978;50.288;28.624;2023-03-04T01:09:41;98458.27;;;-0.80;88.77
60337;BME280;46978;50.288;28.624;2023-03-04T01:10:43;98453.16;;;-0.81;88.63
60337;BME280;46978;50.288;28.624;2023-03-04T01:11:45;98454.84;;;-0.83;88.60
60337;BME280;46978;50.288;28.624;2023-03-04T01:12:47;98452.31;;;-0.82;88.69
60337;BME280;46978;50.288;28.624;2023-03-04T01:13:48;98458.23;;;-0.83;88.66
60337;BME280;46978;50.288;28.624;2023-03-04T01:14:50;98454.84;;;-0.83;88.89
60337;BME280;46978;50.288;28.624;2023-03-04T01:15:52;98458.23;;;-0.83;88.94
60337;BME280;46978;50.288;28.624;2023-03-04T01:16:53;98460.76;;;-0.84;89.04
60337;BME280;46978;50.288;28.624;2023-03-04T01:17:55;98451.42;;;-0.84;89.17
60337;BME280;46978;50.288;28.624;2023-03-04T01:18:57;98458.21;;;-0.84;88.94
60337;BME280;46978;50.288;28.624;2023-03-04T01:19:59;98458.21;;;-0.84;89.22
60337;BME280;46978;50.288;28.624;2023-03-04T01:21:01;98467.58;;;-0.83;88.92
60337;BME280;46978;50.288;28.624;2023-03-04T01:22:02;98464.17;;;-0.82;89.00
60337;BME280;46978;50.288;28.624;2023-03-04T01:23:04;98462.48;;;-0.83;88.88
60337;BME280;46978;50.288;28.624;2023-03-04T01:24:06;98460.80;;;-0.81;88.90
60337;BME280;46978;50.288;28.624;2023-03-04T01:25:08;98459.09;;;-0.81;88.96
60337;BME280;46978;50.288;28.624;2023-03-04T01:26:11;98452.33;;;-0.80;89.14
60337;BME280;46978;50.288;28.624;2023-03-04T01:27:13;98446.38;;;-0.79;89.25
60337;BME280;46978;50.288;28.624;2023-03-04T01:28:14;98449.80;;;-0.79;88.90
60337;BME280;46978;50.288;28.624;2023-03-04T01:29:16;98454.02;;;-0.79;88.74
60337;BME280;46978;50.288;28.624;2023-03-04T01:30:18;98455.74;;;-0.78;88.75
60337;BME280;46978;50.288;28.624;2023-03-04T01:31:20;98449.80;;;-0.79;88.70
60337;BME280;46978;50.288;28.624;2023-03-04T01:32:21;98453.17;;;-0.80;88.67
60337;BME280;46978;50.288;28.624;2023-03-04T01:33:23;98454.90;;;-0.79;88.64
60337;BME280;46978;50.288;28.624;2023-03-04T01:34:25;98453.20;;;-0.78;88.83
60337;BME280;46978;50.288;28.624;2023-03-04T01:35:26;98454.02;;;-0.79;88.93
60337;BME280;46978;50.288;28.624;2023-03-04T01:36:28;98445.53;;;-0.80;88.75
60337;BME280;46978;50.288;28.624;2023-03-04T01:37:30;98441.27;;;-0.81;88.78
60337;BME280;46978;50.288;28.624;2023-03-04T01:38:31;98446.38;;;-0.79;88.90
60337;BME280;46978;50.288;28.624;2023-03-04T01:39:33;98445.55;;;-0.78;88.90
60337;BME280;46978;50.288;28.624;2023-03-04T01:40:36;98444.71;;;-0.79;89.03
60337;BME280;46978;50.288;28.624;2023-03-04T01:41:38;98437.91;;;-0.78;88.83
60337;BME280;46978;50.288;28.624;2023-03-04T01:42:40;98446.38;;;-0.79;88.80
60337;BME280;46978;50.288;28.624;2023-03-04T01:43:42;98441.28;;;-0.79;88.91
60337;BME280;46978;50.288;28.624;2023-03-04T01:44:44;98448.92;;;-0.79;89.06
60337;BME280;46978;50.288;28.624;2023-03-04T01:45:47;98441.30;;;-0.78;89.08
60337;BME280;46978;50.288;28.624;2023-03-04T01:46:53;98449.83;;;-0.77;88.88
60337;BME280;46978;50.288;28.624;2023-03-04T01:47:56;98444.73;;;-0.77;88.92
60337;BME280;46978;50.288;28.624;2023-03-04T01:48:58;98441.33;;;-0.76;89.00
60337;BME280;46978;50.288;28.624;2023-03-04T01:50:03;98442.22;;;-0.74;89.18
60337;BME280;46978;50.288;28.624;2023-03-04T01:51:10;98428.63;;;-0.73;89.24
60337;BME280;46978;50.288;28.624;2023-03-04T01:52:12;98439.67;;;-0.74;88.97
60337;BME280;46978;50.288;28.624;2023-03-04T01:53:20;98432.05;;;-0.73;89.08
60337;BME280;46978;50.288;28.624;2023-03-04T01:54:22;98437.14;;;-0.73;88.92
60337;BME280;46978;50.288;28.624;2023-03-04T01:55:24;98429.50;;;-0.73;88.36
60337;BME280;46978;50.288;28.624;2023-03-04T01:56:38;98432.86;;;-0.75;88.45
60337;BME280;46978;50.288;28.624;2023-03-04T01:57:38;98430.31;;;-0.75;88.53
60337;BME280;46978;50.288;28.624;2023-03-04T01:58:40;98428.61;;;-0.75;88.42
60337;BME280;46978;50.288;28.624;2023-03-04T01:59:41;98420.97;;;-0.75;88.59
60337;BME280;46978;50.288;28.624;2023-03-04T02:00:43;98418.42;;;-0.75;88.63
60337;BME280;46978;50.288;28.624;2023-03-04T02:02:59;98416.75;;;-0.74;88.57
60337;BME280;46978;50.288;28.624;2023-03-04T02:04:01;98416.75;;;-0.74;88.47
60337;BME280;46978;50.288;28.624;2023-03-04T02:05:03;98418.42;;;-0.75;88.19
60337;BME280;46978;50.288;28.624;2023-03-04T02:06:05;98407.36;;;-0.77;87.67
60337;BME280;46978;50.288;28.624;2023-03-04T02:07:08;98410.73;;;-0.78;87.61
60337;BME280;46978;50.288;28.624;2023-03-04T02:08:11;98413.27;;;-0.79;87.87
60337;BME280;46978;50.288;28.624;2023-03-04T02:09:15;98412.42;;;-0.80;87.94
60337;BME280;46978;50.288;28.624;2023-03-04T02:10:18;98414.97;;;-0.80;87.90
60337;BME280;46978;50.288;28.624;2023-03-04T02:11:20;98412.39;;;-0.83;87.23
60337;BME280;46978;50.288;28.624;2023-03-04T02:12:22;98403.01;;;-0.85;87.22
60337;BME280;46978;50.288;28.624;2023-03-04T02:13:24;98412.35;;;-0.86;87.08
60337;BME280;46978;50.288;28.624;2023-03-04T02:14:25;98401.30;;;-0.88;87.18
60337;BME280;46978;50.288;28.624;2023-03-04T02:15:28;98402.98;;;-0.87;87.44
60337;BME280;46978;50.288;28.624;2023-03-04T02:16:30;98406.38;;;-0.89;86.86
60337;BME280;46978;50.288;28.624;2023-03-04T02:17:32;98409.75;;;-0.91;86.87
60337;BME280;46978;50.288;28.624;2023-03-04T02:18:34;98416.50;;;-0.94;86.65
60337;BME280;46978;50.288;28.624;2023-03-04T02:19:59;98417.33;;;-0.95;86.73
60337;BME280;46978;50.288;28.624;2023-03-04T02:21:23;98415.61;;;-0.96;86.70
60337;BME280;46978;50.288;28.624;2023-03-04T02:22:25;98418.99;;;-0.99;86.72
60337;BME280;46978;50.288;28.624;2023-03-04T02:25:05;98415.53;;;-1.02;86.96
60337;BME280;46978;50.288;28.624;2023-03-04T02:27:18;98401.94;;;-1.04;86.78
60337;BME280;46978;50.288;28.624;2023-03-04T02:28:20;98396.00;;;-1.05;86.98
60337;BME280;46978;50.288;28.624;2023-03-04T02:29:22;98387.48;;;-1.05;87.06
60337;BME280;46978;50.288;28.624;2023-03-04T02:30:24;98396.84;;;-1.04;86.93
60337;BME280;46978;50.288;28.624;2023-03-04T02:31:35;98396.84;;;-1.04;86.85
60337;BME280;46978;50.288;28.624;2023-03-04T02:32:37;98395.13;;;-1.05;86.78
60337;BME280;46978;50.288;28.624;2023-03-04T02:33:39;98394.28;;;-1.06;86.88
60337;BME280;46978;50.288;28.624;2023-03-04T02:34:46;98401.07;;;-1.06;86.80
60337;BME280;46978;50.288;28.624;2023-03-04T02:35:49;98395.10;;;-1.07;86.75
60337;BME280;46978;50.288;28.624;2023-03-04T02:36:52;98392.55;;;-1.07;86.98
60337;BME280;46978;50.288;28.624;2023-03-04T02:37:54;98392.58;;;-1.05;86.99
60337;BME280;46978;50.288;28.624;2023-03-04T02:39:40;98394.28;;;-1.06;86.97
60337;BME280;46978;50.288;28.624;2023-03-04T02:40:05;98390.89;;;-1.06;87.06
60337;BME280;46978;50.288;28.624;2023-03-04T02:41:11;98379.83;;;-1.07;87.08
60337;BME280;46978;50.288;28.624;2023-03-04T02:42:15;98385.77;;;-1.08;86.94
60337;BME280;46978;50.288;28.624;2023-03-04T02:43:17;98390.02;;;-1.07;87.23
60337;BME280;46978;50.288;28.624;2023-03-04T02:44:22;98382.35;;;-1.09;87.23
60337;BME280;46978;50.288;28.624;2023-03-04T02:46:33;98375.59;;;-1.08;87.39
60337;BME280;46978;50.288;28.624;2023-03-04T02:47:35;98374.72;;;-1.09;87.60
60337;BME280;46978;50.288;28.624;2023-03-04T02:48:36;98373.89;;;-1.07;87.67
60337;BME280;46978;50.288;28.624;2023-03-04T02:49:39;98372.17;;;-1.09;87.63
60337;BME280;46978;50.288;28.624;2023-03-04T02:50:44;98373.89;;;-1.07;87.70
60337;BME280;46978;50.288;28.624;2023-03-04T02:51:52;98367.95;;;-1.08;87.63
60337;BME280;46978;50.288;28.624;2023-03-04T02:52:54;98368.81;;;-1.06;87.95
60337;BME280;46978;50.288;28.624;2023-03-04T02:53:55;98365.42;;;-1.06;87.65
60337;BME280;46978;50.288;28.624;2023-03-04T02:54:57;98358.66;;;-1.04;87.70
60337;BME280;46978;50.288;28.624;2023-03-04T02:55:59;98372.25;;;-1.02;87.79
60337;BME280;46978;50.288;28.624;2023-03-04T02:57:04;98370.58;;;-1.02;87.50
60337;BME280;46978;50.288;28.624;2023-03-04T02:58:07;98363.77;;;-1.03;87.46
60337;BME280;46978;50.288;28.624;2023-03-04T02:59:08;98356.95;;;-1.04;87.45
60337;BME280;46978;50.288;28.624;2023-03-04T03:00:11;98366.29;;;-1.04;87.51
60337;BME280;46978;50.288;28.624;2023-03-04T03:01:13;98356.94;;;-1.05;87.59
60337;BME280;46978;50.288;28.624;2023-03-04T03:02:15;98359.48;;;-1.05;87.59
60337;BME280;46978;50.288;28.624;2023-03-04T03:03:17;98367.99;;;-1.05;87.65
60337;BME280;46978;50.288;28.624;2023-03-04T03:04:19;98368.02;;;-1.03;87.95
60337;BME280;46978;50.288;28.624;2023-03-04T03:05:24;98361.22;;;-1.03;87.89
60337;BME280;46978;50.288;28.624;2023-03-04T03:06:26;98350.20;;;-1.02;87.80
60337;BME280;46978;50.288;28.624;2023-03-04T03:07:28;98346.77;;;-1.04;87.48
60337;BME280;46978;50.288;28.624;2023-03-04T03:08:30;98345.94;;;-1.03;87.59
60337;BME280;46978;50.288;28.624;2023-03-04T03:09:31;98348.48;;;-1.03;87.59
60337;BME280;46978;50.288;28.624;2023-03-04T03:10:33;98351.03;;;-1.03;87.50
60337;BME280;46978;50.288;28.624;2023-03-04T03:11:35;98348.48;;;-1.03;87.54
60337;BME280;46978;50.288;28.624;2023-03-04T03:12:37;98344.23;;;-1.02;87.65
60337;BME280;46978;50.288;28.624;2023-03-04T03:13:38;98344.23;;;-1.02;87.78
60337;BME280;46978;50.288;28.624;2023-03-04T03:14:40;98335.77;;;-1.01;87.74
60337;BME280;46978;50.288;28.624;2023-03-04T03:15:41;98343.43;;;-1.00;87.80
60337;BME280;46978;50.288;28.624;2023-03-04T03:16:43;98334.07;;;-1.01;87.54
60337;BME280;46978;50.288;28.624;2023-03-04T03:17:45;98336.62;;;-1.01;87.48
60337;BME280;46978;50.288;28.624;2023-03-04T03:18:46;98333.24;;;-1.00;87.38
60337;BME280;46978;50.288;28.624;2023-03-04T03:19:48;98335.80;;;-1.00;87.27
60337;BME280;46978;50.288;28.624;2023-03-04T03:20:49;98329.84;;;-1.02;87.35
60337;BME280;46978;50.288;28.624;2023-03-04T03:21:51;98330.68;;;-1.01;87.52
60337;BME280;46978;50.288;28.624;2023-03-04T03:22:53;98330.68;;;-1.01;87.63
60337;BME280;46978;50.288;28.624;2023-03-04T03:23:54;98327.31;;;-1.00;87.71
60337;BME280;46978;50.288;28.624;2023-03-04T03:24:56;98326.45;;;-0.99;87.66
60337;BME280;46978;50.288;28.624;2023-03-04T03:25:58;98334.11;;;-0.98;87.44
60337;BME280;46978;50.288;28.624;2023-03-04T03:27:01;98326.47;;;-0.98;87.38
60337;BME280;46978;50.288;28.624;2023-03-04T03:28:03;98319.70;;;-0.97;87.50
60337;BME280;46978;50.288;28.624;2023-03-04T03:29:05;98322.27;;;-0.96;87.59
60337;BME280;46978;50.288;28.624;2023-03-04T03:30:14;98324.81;;;-0.96;87.35
60337;BME280;46978;50.288;28.624;2023-03-04T03:31:13;98322.27;;;-0.96;87.46
60337;BME280;46978;50.288;28.624;2023-03-04T03:32:15;98319.72;;;-0.96;87.56
60337;BME280;46978;50.288;28.624;2023-03-04T03:33:17;98316.30;;;-0.96;87.25
60337;BME280;46978;50.288;28.624;2023-03-04T03:34:18;98313.77;;;-0.95;87.29
60337;BME280;46978;50.288;28.624;2023-03-04T03:35:20;98309.54;;;-0.96;87.22
60337;BME280;46978;50.288;28.624;2023-03-04T03:36:22;98306.12;;;-0.95;87.12
60337;BME280;46978;50.288;28.624;2023-03-04T03:37:23;98301.05;;;-0.93;87.34
60337;BME280;46978;50.288;28.624;2023-03-04T03:38:25;98304.48;;;-0.93;87.22
60337;BME280;46978;50.288;28.624;2023-03-04T03:39:27;98297.68;;;-0.92;87.23
60337;BME280;46978;50.288;28.624;2023-03-04T03:40:29;98304.49;;;-0.91;87.19
60337;BME280;46978;50.288;28.624;2023-03-04T03:41:30;98299.41;;;-0.89;87.39
60337;BME280;46978;50.288;28.624;2023-03-04T03:42:32;98301.96;;;-0.89;86.88
60337;BME280;46978;50.288;28.624;2023-03-04T03:43:34;98303.65;;;-0.88;86.86
60337;BME280;46978;50.288;28.624;2023-03-04T03:44:35;98285.83;;;-0.88;86.98
60337;BME280;46978;50.288;28.624;2023-03-04T03:45:37;98301.13;;;-0.87;86.70
60337;BME280;46978;50.288;28.624;2023-03-04T03:46:39;98287.55;;;-0.87;86.70
60337;BME280;46978;50.288;28.624;2023-03-04T03:47:41;98284.17;;;-0.86;86.84
60337;BME280;46978;50.288;28.624;2023-03-04T03:48:42;98278.22;;;-0.85;86.83
60337;BME280;46978;50.288;28.624;2023-03-04T03:49:44;98271.44;;;-0.86;86.67
60337;BME280;46978;50.288;28.624;2023-03-04T03:50:46;98268.03;;;-0.85;86.87
60337;BME280;46978;50.288;28.624;2023-03-04T03:51:47;98268.92;;;-0.83;86.98
60337;BME280;46978;50.288;28.624;2023-03-04T03:52:49;98263.83;;;-0.83;86.50
60337;BME280;46978;50.288;28.624;2023-03-04T03:53:51;98260.42;;;-0.82;86.62
60337;BME280;46978;50.288;28.624;2023-03-04T03:54:52;98257.05;;;-0.81;86.76
60337;BME280;46978;50.288;28.624;2023-03-04T03:55:54;98254.49;;;-0.81;86.76
60337;BME280;46978;50.288;28.624;2023-03-04T03:56:56;98255.32;;;-0.82;86.27
60337;BME280;46978;50.288;28.624;2023-03-04T03:57:57;98250.24;;;-0.81;86.24
60337;BME280;46978;50.288;28.624;2023-03-04T03:58:59;98240.91;;;-0.82;86.43
60337;BME280;46978;50.288;28.624;2023-03-04T04:00:01;98241.76;;;-0.81;86.42
60337;BME280;46978;50.288;28.624;2023-03-04T04:01:03;98233.29;;;-0.80;86.35
60337;BME280;46978;50.288;28.624;2023-03-04T04:02:04;98233.29;;;-0.80;86.38
60337;BME280;46978;50.288;28.624;2023-03-04T04:03:06;98235.84;;;-0.80;86.28
60337;BME280;46978;50.288;28.624;2023-03-04T04:04:08;98233.29;;;-0.80;86.45
60337;BME280;46978;50.288;28.624;2023-03-04T04:05:11;98225.66;;;-0.79;86.40
60337;BME280;46978;50.288;28.624;2023-03-04T04:06:13;98228.20;;;-0.79;86.25
60337;BME280;46978;50.288;28.624;2023-03-04T04:07:15;98230.74;;;-0.80;86.04
60337;BME280;46978;50.288;28.624;2023-03-04T04:08:17;98223.93;;;-0.81;86.06
60337;BME280;46978;50.288;28.624;2023-03-04T04:09:19;98227.30;;;-0.82;86.16
60337;BME280;46978;50.288;28.624;2023-03-04T04:10:20;98218.83;;;-0.83;86.10
60337;BME280;46978;50.288;28.624;2023-03-04T04:11:22;98220.54;;;-0.82;86.10
60337;BME280;46978;50.288;28.624;2023-03-04T04:12:24;98218.00;;;-0.82;86.27
60337;BME280;46978;50.288;28.624;2023-03-04T04:13:25;98221.38;;;-0.81;86.33
60337;BME280;46978;50.288;28.624;2023-03-04T04:14:27;98221.38;;;-0.81;86.40
60337;BME280;46978;50.288;28.624;2023-03-04T04:15:29;98218.84;;;-0.81;85.89
60337;BME280;46978;50.288;28.624;2023-03-04T04:16:30;98220.54;;;-0.82;85.94
60337;BME280;46978;50.288;28.624;2023-03-04T04:17:32;98226.48;;;-0.81;86.12
60337;BME280;46978;50.288;28.624;2023-03-04T04:18:33;98219.68;;;-0.81;86.06
60337;BME280;46978;50.288;28.624;2023-03-04T04:19:35;98223.95;;;-0.80;86.09
60337;BME280;46978;50.288;28.624;2023-03-04T04:20:37;98227.33;;;-0.79;86.10
60337;BME280;46978;50.288;28.624;2023-03-04T04:21:38;98222.25;;;-0.78;86.25
60337;BME280;46978;50.288;28.624;2023-03-04T04:22:40;98216.32;;;-0.78;86.11
60337;BME280;46978;50.288;28.624;2023-03-04T04:23:42;98226.52;;;-0.77;86.17
60337;BME280;46978;50.288;28.624;2023-03-04T04:24:43;98222.27;;;-0.76;85.93
60337;BME280;46978;50.288;28.624;2023-03-04T04:25:45;98216.33;;;-0.77;85.88
60337;BME280;46978;50.288;28.624;2023-03-04T04:26:47;98215.50;;;-0.76;86.22
60337;BME280;46978;50.288;28.624;2023-03-04T04:27:48;98211.25;;;-0.75;86.33
60337;BME280;46978;50.288;28.624;2023-03-04T04:28:50;98215.52;;;-0.74;86.33
60337;BME280;46978;50.288;28.624;2023-03-04T04:29:52;98201.91;;;-0.75;86.29
60337;BME280;46978;50.288;28.624;2023-03-04T04:30:53;98207.01;;;-0.73;86.28
60337;BME280;46978;50.288;28.624;2023-03-04T04:31:55;98202.78;;;-0.74;86.14
60337;BME280;46978;50.288;28.624;2023-03-04T04:32:56;98194.25;;;-0.76;86.07
60337;BME280;46978;50.288;28.624;2023-03-04T04:33:58;98198.50;;;-0.77;86.15
60337;BME280;46978;50.288;28.624;2023-03-04T04:35:00;98203.59;;;-0.77;86.10
60337;BME280;46978;50.288;28.624;2023-03-04T04:36:03;98198.48;;;-0.78;86.07
60337;BME280;46978;50.288;28.624;2023-03-04T04:37:04;98199.31;;;-0.79;86.32
60337;BME280;46978;50.288;28.624;2023-03-04T04:38:07;98197.64;;;-0.79;86.34
60337;BME280;46978;50.288;28.624;2023-03-04T04:39:09;98193.38;;;-0.80;86.44
60337;BME280;46978;50.288;28.624;2023-03-04T04:40:12;98190.00;;;-0.79;86.48
60337;BME280;46978;50.288;28.624;2023-03-04T04:41:25;98184.91;;;-0.79;86.53
60337;BME280;46978;50.288;28.624;2023-03-04T04:42:28;98185.73;;;-0.80;86.59
60337;BME280;46978;50.288;28.624;2023-03-04T04:43:29;98183.20;;;-0.80;86.64
60337;BME280;46978;50.288;28.624;2023-03-04T04:44:31;98187.45;;;-0.80;86.65
60337;BME280;46978;50.288;28.624;2023-03-04T04:45:33;98183.18;;;-0.81;86.72
60337;BME280;46978;50.288;28.624;2023-03-04T04:46:35;98178.08;;;-0.83;86.84
60337;BME280;46978;50.288;28.624;2023-03-04T04:47:37;98178.89;;;-0.85;86.82
60337;BME280;46978;50.288;28.624;2023-03-04T04:48:39;98171.23;;;-0.88;86.90
60337;BME280;46978;50.288;28.624;2023-03-04T04:49:40;98172.93;;;-0.89;87.00
60337;BME280;46978;50.288;28.624;2023-03-04T04:50:42;98170.38;;;-0.91;87.10
60337;BME280;46978;50.288;28.624;2023-03-04T04:51:44;98164.44;;;-0.91;87.14
60337;BME280;46978;50.288;28.624;2023-03-04T04:52:45;98168.66;;;-0.92;87.22
60337;BME280;46978;50.288;28.624;2023-03-04T04:53:47;98166.08;;;-0.95;87.24
60337;BME280;46978;50.288;28.624;2023-03-04T04:54:49;98166.08;;;-0.95;87.40
60337;BME280;46978;50.288;28.624;2023-03-04T04:55:51;98166.95;;;-0.96;87.39
60337;BME280;46978;50.288;28.624;2023-03-04T04:56:52;98169.48;;;-0.96;87.53
60337;BME280;46978;50.288;28.624;2023-03-04T04:57:54;98168.60;;;-0.98;87.58
60337;BME280;46978;50.288;28.624;2023-03-04T04:58:58;98160.95;;;-0.99;87.68
60337;BME280;46978;50.288;28.624;2023-03-04T04:59:59;98161.83;;;-0.99;87.80
60337;BME280;46978;50.288;28.624;2023-03-04T05:01:01;98160.96;;;-0.98;87.90
60337;BME280;46978;50.288;28.624;2023-03-04T05:02:03;98160.13;;;-0.97;87.98
60337;BME280;46978;50.288;28.624;2023-03-04T05:03:04;98170.33;;;-0.95;88.05
60337;BME280;46978;50.288;28.624;2023-03-04T05:04:06;98169.50;;;-0.94;88.16
60337;BME280;46978;50.288;28.624;2023-03-04T05:05:08;98166.09;;;-0.93;88.27
60337;BME280;46978;50.288;28.624;2023-03-04T05:06:11;98170.34;;;-0.94;88.36
60337;BME280;46978;50.288;28.624;2023-03-04T05:07:13;98155.92;;;-0.92;88.46
60337;BME280;46978;50.288;28.624;2023-03-04T05:08:14;98153.41;;;-0.88;88.60
60337;BME280;46978;50.288;28.624;2023-03-04T05:09:16;98154.27;;;-0.88;88.64
60337;BME280;46978;50.288;28.624;2023-03-04T05:10:18;98145.77;;;-0.87;88.77
60337;BME280;46978;50.288;28.624;2023-03-04T05:11:20;98148.33;;;-0.85;88.80
60337;BME280;46978;50.288;28.624;2023-03-04T05:12:21;98137.28;;;-0.89;88.80
60337;BME280;46978;50.288;28.624;2023-03-04T05:13:23;98145.82;;;-0.81;88.94
60337;BME280;46978;50.288;28.624;2023-03-04T05:14:25;98143.28;;;-0.79;88.90
60337;BME280;46978;50.288;28.624;2023-03-04T05:15:27;98141.63;;;-0.77;88.92
60337;BME280;46978;50.288;28.624;2023-03-04T05:16:28;98148.41;;;-0.76;88.96
60337;BME280;46978;50.288;28.624;2023-03-04T05:17:30;98144.17;;;-0.77;88.93
60337;BME280;46978;50.288;28.624;2023-03-04T05:18:32;98136.53;;;-0.77;89.03
60337;BME280;46978;50.288;28.624;2023-03-04T05:19:34;98139.09;;;-0.74;89.12
60337;BME280;46978;50.288;28.624;2023-03-04T05:20:36;98142.50;;;-0.72;89.14
60337;BME280;46978;50.288;28.624;2023-03-04T05:21:38;98134.88;;;-0.69;89.10
60337;BME280;46978;50.288;28.624;2023-03-04T05:22:39;98138.27;;;-0.68;89.06
60337;BME280;46978;50.288;28.624;2023-03-04T05:23:42;98138.28;;;-0.67;89.08
60337;BME280;46978;50.288;28.624;2023-03-04T05:24:43;98139.16;;;-0.66;89.04
60337;BME280;46978;50.288;28.624;2023-03-04T05:25:45;98140.84;;;-0.64;89.03
60337;BME280;46978;50.288;28.624;2023-03-04T05:26:47;98139.19;;;-0.62;89.08
60337;BME280;46978;50.288;28.624;2023-03-04T05:27:49;98143.42;;;-0.61;89.03
60337;BME280;46978;50.288;28.624;2023-03-04T05:28:50;98141.75;;;-0.59;89.08
60337;BME280;46978;50.288;28.624;2023-03-04T05:29:52;98142.59;;;-0.58;88.99
60337;BME280;46978;50.288;28.624;2023-03-04T05:30:54;98136.68;;;-0.56;89.03